Arthurdale, West Virginia
Current Conditions -  °F | °C
As of 4:53 AM on Thursday 29 Jan 2015 (Local Time) from KMGW Reporting Station
Clear Clear  
Wind Chill: 22°   Ceiling: Unl
Heat Index: 22°   Visibility: 10mi
Dew Point: 14°   Wind: 3mph
Humidity: 72%   Direction: 100°E
Pressure: 30.14"   Gusts: NA
Location:  39.49°N, 79.82°W
Report Text: KMGW 290953Z AUTO 10003KT 10SM CLR M06/M10 A3014 RMK AO2 SLP224 T10561100 TSNO
Loading
Personal Weather Stations






























Interactive Weather Map New forecast layout! Learn more

10-Day Weather Forecast

Advertisements
Track Severe Weather on mobile